createdAt,value
2022-07-30T00:07:04.515Z,5.3
2022-07-30T00:12:07.818Z,7.2
2022-07-30T00:17:05.268Z,7.2
2022-07-30T00:22:05.351Z,12.2
2022-07-30T00:27:05.653Z,14.3
2022-07-30T00:32:05.984Z,12.8
2022-07-30T00:37:06.136Z,10.9
2022-07-30T00:42:06.379Z,10.9
2022-07-30T00:47:06.658Z,10.4
2022-07-30T00:52:08.244Z,8.7
2022-07-30T00:57:09.145Z,9.1
2022-07-30T01:02:07.424Z,5.5
2022-07-30T01:07:07.585Z,9.5
2022-07-30T01:12:10.382Z,5.9
2022-07-30T01:17:08.037Z,11.0
2022-07-30T01:22:08.271Z,6.8
2022-07-30T01:26:39.841Z,6.8
2022-07-30T01:27:08.535Z,8.2
2022-07-30T01:32:08.776Z,7.6
2022-07-30T01:37:09.018Z,19.2
2022-07-30T01:42:09.258Z,7.5
2022-07-30T01:47:09.498Z,7.5
2022-07-30T01:52:09.706Z,10.2
2022-07-30T01:57:09.959Z,10.2
2022-07-30T02:02:10.189Z,7.8
2022-07-30T02:07:10.413Z,11.6
2022-07-30T02:12:10.616Z,14.4
2022-07-30T02:17:19.074Z,7.8
2022-07-30T02:22:11.204Z,16.4
2022-07-30T02:27:11.235Z,16.4
2022-07-30T02:32:11.433Z,6.0
2022-07-30T02:37:11.661Z,8.6
2022-07-30T02:42:11.800Z,8.6
2022-07-30T02:47:14.234Z,7.7
2022-07-30T02:52:12.201Z,5.8
2022-07-30T02:57:12.401Z,12.1
2022-07-30T03:02:12.672Z,12.1
2022-07-30T03:07:14.769Z,5.2
2022-07-30T03:12:12.985Z,5.2
2022-07-30T03:17:13.100Z,8.1
2022-07-30T03:27:15.499Z,7.0
2022-07-30T03:32:15.037Z,9.6
2022-07-30T03:37:13.850Z,9.4
2022-07-30T03:42:14.115Z,7.9
2022-07-30T03:47:14.162Z,6.1
2022-07-30T03:52:14.431Z,7.1
2022-07-30T03:57:17.592Z,11.0
2022-07-30T04:02:14.728Z,8.8
2022-07-30T04:07:14.876Z,7.3
2022-07-30T04:12:15.027Z,9.8
2022-07-30T04:17:15.194Z,9.8
2022-07-30T04:22:15.263Z,7.5
2022-07-30T04:27:15.407Z,5.5
2022-07-30T04:37:15.737Z,5.2
2022-07-30T04:42:16.458Z,6.5
2022-07-30T04:47:16.058Z,8.4
2022-07-30T04:52:16.029Z,8.4
2022-07-30T04:57:16.113Z,6.9
2022-07-30T05:02:16.227Z,6.1
2022-07-30T05:07:16.394Z,6.1
2022-07-30T05:12:16.575Z,5.3
2022-07-30T05:17:16.743Z,8.1
2022-07-30T05:22:16.956Z,5.7
2022-07-30T05:27:19.140Z,4.9
2022-07-30T05:32:18.642Z,9.0
2022-07-30T05:47:17.854Z,7.9
2022-07-30T05:52:20.092Z,9.4
2022-07-30T05:57:18.301Z,9.9
2022-07-30T06:02:18.585Z,13.5
2022-07-30T06:07:18.707Z,7.0
2022-07-30T06:12:18.932Z,6.3
2022-07-30T06:17:19.171Z,6.4
2022-07-30T06:22:22.924Z,11.2
2022-07-30T06:27:19.652Z,8.2
2022-07-30T06:32:19.927Z,10.1
2022-07-30T06:37:20.192Z,10.1
2022-07-30T06:42:20.509Z,9.4
2022-07-30T06:47:20.965Z,5.7
2022-07-30T06:57:21.700Z,12.0
2022-07-30T07:02:22.156Z,5.7
2022-07-30T07:07:40.361Z,6.3
2022-07-30T07:12:23.092Z,10.9
2022-07-30T07:17:23.858Z,10.2
2022-07-30T07:22:24.108Z,22.1
2022-07-30T07:27:26.580Z,6.8
2022-07-30T07:32:25.089Z,8.8
2022-07-30T07:37:25.645Z,7.3
2022-07-30T07:42:26.206Z,7.3
2022-07-30T07:47:26.741Z,6.8
2022-07-30T07:52:27.379Z,6.8
2022-07-30T07:57:27.921Z,5.4
2022-07-30T08:02:30.653Z,5.4
2022-07-30T08:07:29.168Z,3.1
2022-07-30T08:17:30.384Z,2.5
2022-07-30T08:22:31.034Z,4.8
2022-07-30T08:27:31.710Z,2.4
2022-07-30T08:32:34.330Z,2.4
2022-07-30T08:37:32.906Z,2.5
2022-07-30T08:42:33.537Z,2.9
2022-07-30T08:47:34.244Z,2.9
2022-07-30T08:52:34.696Z,3.3
2022-07-30T08:57:35.303Z,3.3
2022-07-30T09:02:35.829Z,2.7
2022-07-30T09:07:36.441Z,2.3
2022-07-30T09:12:36.982Z,2.3
2022-07-30T09:17:37.710Z,1.1
2022-07-30T09:22:38.144Z,1.6
2022-07-30T09:27:38.699Z,3.5
2022-07-30T09:32:39.275Z,3.5
2022-07-30T09:37:39.901Z,8.1
2022-07-30T09:42:40.553Z,8.1
2022-07-30T09:52:44.047Z,2.2
2022-07-30T09:57:49.836Z,1.8
2022-07-30T10:02:43.190Z,0.9
2022-07-30T10:07:44.216Z,4.0
2022-07-30T10:12:46.555Z,3.5
2022-07-30T10:17:45.344Z,1.1
2022-07-30T10:22:50.513Z,1.1
2022-07-30T10:27:49.930Z,2.9
2022-07-30T10:32:47.233Z,1.5
2022-07-30T10:37:47.920Z,4.5
2022-07-30T10:42:48.601Z,1.6
2022-07-30T10:47:49.932Z,2.3
2022-07-30T10:52:50.252Z,1.6
2022-07-30T10:57:51.113Z,3.3
2022-07-30T11:02:52.022Z,4.7
2022-07-30T11:07:52.489Z,2.4
2022-07-30T11:12:53.457Z,2.9
2022-07-30T11:17:54.181Z,1.3
2022-07-30T11:22:54.928Z,1.6
2022-07-30T11:32:56.365Z,1.1
2022-07-30T11:38:02.209Z,1.1
2022-07-30T11:42:57.443Z,2.0
2022-07-30T11:52:58.896Z,1.3
2022-07-30T11:57:59.806Z,2.3
2022-07-30T12:08:01.160Z,1.7
2022-07-30T12:13:01.839Z,1.1
2022-07-30T12:18:25.166Z,1.1
2022-07-30T12:28:04.058Z,1.7
2022-07-30T12:33:04.739Z,3.3
2022-07-30T12:38:05.648Z,2.1
2022-07-30T12:43:06.300Z,1.3
2022-07-30T12:48:08.479Z,2.1
2022-07-30T12:53:07.551Z,2.1
2022-07-30T13:03:09.048Z,1.2
2022-07-30T13:08:09.801Z,1.3
2022-07-30T13:13:10.388Z,0.9
2022-07-30T13:18:11.090Z,0.9
2022-07-30T13:28:12.595Z,1.1
2022-07-30T13:38:14.221Z,1.3
2022-07-30T13:43:14.924Z,1.3
2022-07-30T13:48:16.163Z,0.8
2022-07-30T13:58:16.913Z,1.1
2022-07-30T14:08:18.309Z,1.6
2022-07-30T14:13:21.188Z,1.3
2022-07-30T14:18:20.878Z,5.7
2022-07-30T14:23:20.610Z,5.7
2022-07-30T14:28:21.645Z,2.4
2022-07-30T14:33:22.565Z,1.2
2022-07-30T14:38:25.407Z,1.2
2022-07-30T14:43:23.605Z,2.0
2022-07-30T14:53:24.890Z,1.9
2022-07-30T14:58:25.612Z,2.7
2022-07-30T15:03:26.305Z,2.7
2022-07-30T15:08:27.022Z,1.8
2022-07-30T15:13:27.700Z,3.9
2022-07-30T15:18:28.418Z,1.9
2022-07-30T15:23:29.156Z,2.1
2022-07-30T15:28:29.871Z,5.8
2022-07-30T15:33:36.139Z,1.9
2022-07-30T15:38:31.348Z,2.1
2022-07-30T15:43:32.131Z,1.5
2022-07-30T15:48:32.854Z,2.7
2022-07-30T15:58:34.333Z,1.5
2022-07-30T16:03:37.108Z,1.6
2022-07-30T16:08:35.797Z,2.1
2022-07-30T16:13:36.503Z,2.1
2022-07-30T16:18:37.252Z,4.6
2022-07-30T16:28:38.676Z,1.7
2022-07-30T16:38:40.020Z,2.6
2022-07-30T16:43:42.700Z,2.6
2022-07-30T16:48:47.660Z,2.3
2022-07-30T16:53:42.006Z,5.6
2022-07-30T16:58:42.753Z,5.6
2022-07-30T17:03:43.328Z,4.1
2022-07-30T17:08:43.949Z,2.6
2022-07-30T17:13:44.577Z,1.8
2022-07-30T17:23:45.892Z,5.6
2022-07-30T17:28:46.600Z,3.9
2022-07-30T17:33:47.417Z,3.0
2022-07-30T17:38:47.877Z,3.0
2022-07-30T17:43:48.589Z,4.0
2022-07-30T17:48:49.566Z,3.4
2022-07-30T17:53:49.797Z,3.4
2022-07-30T18:03:51.159Z,3.6
2022-07-30T18:08:52.170Z,3.6
2022-07-30T18:13:52.396Z,4.3
2022-07-30T18:18:53.208Z,6.1
2022-07-30T18:23:54.030Z,6.1
2022-07-30T18:28:57.692Z,4.1
2022-07-30T18:38:55.369Z,2.9
2022-07-30T18:43:55.813Z,2.5
2022-07-30T18:48:57.103Z,4.4
2022-07-30T18:53:56.893Z,3.9
2022-07-30T18:58:58.534Z,3.9
2022-07-30T19:03:57.966Z,3.4
2022-07-30T19:08:58.475Z,3.8
2022-07-30T19:13:58.918Z,3.7
2022-07-30T19:18:59.595Z,3.7
2022-07-30T19:24:00.000Z,4.0
2022-07-30T19:29:00.526Z,3.0
2022-07-30T19:34:01.040Z,3.2
2022-07-30T19:39:07.628Z,3.2
2022-07-30T19:44:01.846Z,4.3
2022-07-30T19:49:02.494Z,2.5
2022-07-30T19:54:02.763Z,7.0
2022-07-30T19:59:14.533Z,7.0
2022-07-30T20:04:03.776Z,6.6
2022-07-30T20:09:04.166Z,6.6
2022-07-30T20:14:04.588Z,5.8
2022-07-30T20:19:05.061Z,7.8
2022-07-30T20:24:05.480Z,9.2
2022-07-30T20:29:09.244Z,5.1
2022-07-30T20:34:06.368Z,8.5
2022-07-30T20:39:06.848Z,6.5
2022-07-30T20:44:08.663Z,17.6
2022-07-30T20:49:07.953Z,17.7
2022-07-30T20:54:08.638Z,14.4
2022-07-30T20:59:08.462Z,42.6
2022-07-30T21:04:08.959Z,16.6
2022-07-30T21:09:09.333Z,16.6
2022-07-30T21:14:09.735Z,4.5
2022-07-30T21:19:10.107Z,2.6
2022-07-30T21:24:11.889Z,5.0
2022-07-30T21:29:10.886Z,3.8
2022-07-30T21:34:11.281Z,3.7
2022-07-30T21:39:13.700Z,3.8
2022-07-30T21:44:12.007Z,4.5
2022-07-30T21:49:12.369Z,4.5
2022-07-30T21:54:13.904Z,4.7
2022-07-30T21:59:12.956Z,5.5
2022-07-30T22:04:13.317Z,10.1
2022-07-30T22:09:18.372Z,2.7
2022-07-30T22:14:14.039Z,5.8
2022-07-30T22:19:14.675Z,5.8
2022-07-30T22:29:15.106Z,7.0
2022-07-30T22:34:16.762Z,7.0
2022-07-30T22:39:15.806Z,6.9
2022-07-30T22:44:16.134Z,5.6
2022-07-30T22:54:16.866Z,9.9
2022-07-30T22:59:17.262Z,6.4
2022-07-30T23:04:17.964Z,8.2
2022-07-30T23:09:17.952Z,11.0
2022-07-30T23:12:28.648Z,4.8
2022-07-30T23:14:18.310Z,4.2
2022-07-30T23:19:21.836Z,7.0
2022-07-30T23:24:19.083Z,6.4
2022-07-30T23:34:19.685Z,4.7
2022-07-30T23:39:20.033Z,5.8
2022-07-30T23:44:22.374Z,8.9
2022-07-30T23:54:21.007Z,8.6
